Time;durP1;ratioP1;P1;durP2;ratioP2;P2;SDS_P1;SDS_P2;PMS_P1;PMS_P2;Temp;Humidity;BMP_temperature;BMP_pressure;BME280_temperature;BME280_humidity;BME280_pressure;Samples;Min_cycle;Max_cycle;Signal;HPM_P1;HPM_P2
2023/04/07 00:00:23;;;;;;;16.48;12.27;;;;;;;7.94;100.00;101460.41;5070050;28;20079;-36
2023/04/07 00:02:49;;;;;;;20.48;13.68;;;;;;;7.87;100.00;101454.16;5069499;28;20372;-36
2023/04/07 00:05:15;;;;;;;14.85;11.65;;;;;;;7.88;100.00;101459.34;5070327;28;20021;-36
2023/04/07 00:07:40;;;;;;;14.32;11.15;;;;;;;7.81;100.00;101445.00;5069417;28;20086;-36
2023/04/07 00:10:07;;;;;;;14.18;10.57;;;;;;;7.84;100.00;101459.94;5070482;28;20033;-36
2023/04/07 00:12:32;;;;;;;13.15;10.45;;;;;;;7.88;100.00;101463.91;5061604;28;20045;-36
2023/04/07 00:14:57;;;;;;;12.20;9.23;;;;;;;7.84;100.00;101452.69;5056079;28;20104;-36
2023/04/07 00:17:23;;;;;;;12.60;9.13;;;;;;;7.85;100.00;101456.19;5056319;28;20021;-36
2023/04/07 00:19:48;;;;;;;10.60;8.33;;;;;;;7.83;100.00;101471.72;5056554;28;20500;-36
2023/04/07 00:22:13;;;;;;;11.90;7.67;;;;;;;7.81;100.00;101469.25;5056321;28;20449;-36
2023/04/07 00:24:39;;;;;;;11.17;7.00;;;;;;;7.78;100.00;101468.81;5056471;28;20028;-36
2023/04/07 00:27:04;;;;;;;9.50;6.50;;;;;;;7.78;100.00;101466.13;5056108;28;20021;-36
2023/04/07 00:29:30;;;;;;;10.20;7.55;;;;;;;7.77;100.00;101467.97;5056633;28;20017;-36
2023/04/07 00:31:55;;;;;;;8.50;7.20;;;;;;;7.69;100.00;101450.09;5056015;28;20025;-36
2023/04/07 00:34:20;;;;;;;9.63;8.13;;;;;;;7.76;100.00;101466.31;5056608;28;20017;-36
2023/04/07 00:36:50;;;;;;;10.23;8.87;;;;;;;7.77;100.00;101462.59;5056287;28;20305;-36
2023/04/07 00:39:19;;;;;;;12.55;9.55;;;;;;;7.75;100.00;101454.69;5056190;28;20361;-36
2023/04/07 00:41:46;;;;;;;11.63;9.05;;;;;;;7.70;100.00;101445.53;5056063;28;20021;-36
2023/04/07 00:44:12;;;;;;;13.25;10.45;;;;;;;7.76;100.00;101455.56;5055846;28;20021;-36
2023/04/07 00:46:38;;;;;;;13.50;10.20;;;;;;;7.70;100.00;101445.53;5056024;28;20033;-36
2023/04/07 00:49:03;;;;;;;10.80;9.65;;;;;;;7.70;100.00;101446.38;5055996;28;20028;-36
2023/04/07 00:51:29;;;;;;;15.10;9.47;;;;;;;7.73;100.00;101455.94;5055489;28;20385;-36
2023/04/07 00:53:54;;;;;;;13.90;8.83;;;;;;;7.73;100.00;101461.31;5055314;28;20036;-36
2023/04/07 00:56:20;;;;;;;9.18;8.00;;;;;;;7.66;100.00;101452.34;5055306;28;20017;-36
2023/04/07 00:58:45;;;;;;;11.83;7.97;;;;;;;7.71;100.00;101458.84;5055813;28;20116;-36
2023/04/07 01:01:14;;;;;;;10.05;7.22;;;;;;;7.69;100.00;101458.19;5056201;28;20052;-36
2023/04/07 01:03:52;;;;;;;9.93;6.80;;;;;;;7.68;100.00;101458.38;5055189;28;20028;-36
2023/04/07 01:06:22;;;;;;;8.52;7.45;;;;;;;7.67;100.00;101467.50;5055685;28;20047;-36
2023/04/07 01:08:59;;;;;;;9.57;7.47;;;;;;;7.66;100.00;101458.59;5055404;28;20024;-36
2023/04/07 01:11:31;;;;;;;10.82;8.10;;;;;;;7.60;100.00;101445.91;5055037;28;20135;-36
2023/04/07 01:13:59;;;;;;;13.57;8.43;;;;;;;7.66;100.00;101455.03;5055539;28;20032;-36
2023/04/07 01:16:52;;;;;;;10.65;7.95;;;;;;;7.70;100.00;101461.69;5055524;28;20369;-36
2023/04/07 01:19:39;;;;;;;13.60;7.93;;;;;;;7.69;100.00;101454.66;5054721;28;20094;-36
2023/04/07 01:22:11;;;;;;;11.48;8.27;;;;;;;7.66;100.00;101463.97;5054639;28;20081;-36
2023/04/07 01:24:58;;;;;;;10.35;8.32;;;;;;;7.67;100.00;101464.81;5053853;28;20021;-36
2023/04/07 01:27:26;;;;;;;8.85;7.15;;;;;;;7.62;100.00;101464.56;5054777;28;20047;-36
2023/04/07 01:29:53;;;;;;;11.73;7.85;;;;;;;7.61;100.00;101462.88;5054953;28;20029;-36
2023/04/07 01:32:19;;;;;;;8.90;6.80;;;;;;;7.62;100.00;101468.09;5054926;28;20025;-36
2023/04/07 01:34:48;;;;;;;9.52;7.03;;;;;;;7.61;100.00;101474.50;5055362;28;20068;-36
2023/04/07 01:37:16;;;;;;;10.32;7.22;;;;;;;7.59;100.00;101479.22;5055374;28;20100;-36
2023/04/07 01:39:41;;;;;;;12.30;6.53;;;;;;;7.59;100.00;101478.41;5054706;28;20020;-36
2023/04/07 01:42:08;;;;;;;7.53;5.35;;;;;;;7.54;100.00;101476.28;5054264;28;20028;-36
2023/04/07 01:44:34;;;;;;;8.80;4.45;;;;;;;7.51;100.00;101478.53;5054691;28;20048;-36
2023/04/07 01:47:00;;;;;;;;;;;;;;;7.56;100.00;101478.78;5055076;28;20022;-36
2023/04/07 01:49:26;;;;;;;5.88;3.40;;;;;;;7.45;100.00;101480.16;5054638;28;19912;-36
2023/04/07 01:51:53;;;;;;;4.63;2.83;;;;;;;7.44;100.00;101476.63;5054904;28;20527;-36
2023/04/07 01:54:20;;;;;;;4.30;3.30;;;;;;;7.42;100.00;101476.00;5055062;28;20020;-36
2023/04/07 01:56:45;;;;;;;4.82;3.13;;;;;;;7.44;100.00;101482.00;5054430;28;20025;-36
2023/04/07 01:59:11;;;;;;;4.22;3.28;;;;;;;7.45;100.00;101480.97;5054650;28;20033;-36
2023/04/07 02:01:37;;;;;;;6.45;4.32;;;;;;;7.44;100.00;101478.50;5054794;28;20360;-36
2023/04/07 02:04:08;;;;;;;5.60;3.65;;;;;;;7.44;100.00;101484.72;5054569;28;20033;-36
2023/04/07 02:06:48;;;;;;;5.72;3.55;;;;;;;7.45;100.00;101489.06;5054494;28;20032;-36
2023/04/07 02:09:15;;;;;;;5.97;3.67;;;;;;;7.45;100.00;101488.22;5053961;28;20029;-36
2023/04/07 02:11:43;;;;;;;6.70;3.45;;;;;;;7.46;100.00;101493.41;5053890;28;20028;-36
2023/04/07 02:14:10;;;;;;;5.53;3.50;;;;;;;7.47;100.00;101495.09;5054087;28;20049;-36
2023/04/07 02:16:36;;;;;;;8.07;3.75;;;;;;;7.39;100.00;101481.78;5054136;28;20070;-36
2023/04/07 02:19:03;;;;;;;;;;;;;;;7.51;100.00;101498.19;5054490;28;20055;-36
2023/04/07 02:21:29;;;;;;;4.80;2.80;;;;;;;7.47;100.00;101495.09;5054244;28;19912;-36
2023/04/07 02:23:55;;;;;;;;;;;;;;;7.52;100.00;101504.44;5054062;28;20508;-36
2023/04/07 02:26:20;;;;;;;6.70;3.75;;;;;;;7.40;100.00;101496.88;5053992;28;19999;-36
2023/04/07 02:28:46;;;;;;;5.53;3.80;;;;;;;7.46;100.00;101504.16;5053673;28;20048;-36
2023/04/07 02:31:12;;;;;;;6.25;3.63;;;;;;;7.44;100.00;101503.53;5054716;28;20502;-36
2023/04/07 02:33:38;;;;;;;7.63;4.53;;;;;;;7.44;100.00;101500.84;5052594;28;20059;-36
2023/04/07 02:36:03;;;;;;;10.98;5.22;;;;;;;7.45;100.00;101499.81;5053853;28;20029;-36
2023/04/07 02:38:28;;;;;;;14.33;4.40;;;;;;;7.44;100.00;101500.84;5054278;28;20078;-36
2023/04/07 02:40:54;;;;;;;6.80;3.97;;;;;;;7.38;100.00;101484.66;5053727;28;20024;-36
2023/04/07 02:43:20;;;;;;;5.45;4.55;;;;;;;7.36;100.00;101481.31;5053455;28;20467;-36
2023/04/07 02:45:45;;;;;;;6.30;4.72;;;;;;;7.36;100.00;101481.31;5053672;28;20461;-36
2023/04/07 02:48:11;;;;;;;5.50;4.13;;;;;;;7.41;100.00;101493.16;5053835;28;20052;-36
2023/04/07 02:50:36;;;;;;;6.97;4.27;;;;;;;7.36;100.00;101484.84;5053386;28;20255;-36
2023/04/07 02:53:01;;;;;;;7.53;4.20;;;;;;;7.41;100.00;101486.94;5053539;28;20429;-36
2023/04/07 02:55:27;;;;;;;9.07;4.60;;;;;;;7.40;100.00;101488.81;5054111;28;20017;-36
2023/04/07 02:57:52;;;;;;;5.67;4.40;;;;;;;7.40;100.00;101494.19;5053479;28;20025;-36
2023/04/07 03:00:18;;;;;;;8.13;4.47;;;;;;;7.34;100.00;101484.22;5053577;28;20051;-36
2023/04/07 03:02:43;;;;;;;9.00;4.43;;;;;;;7.38;100.00;101493.56;5053473;28;20027;-36
2023/04/07 03:05:08;;;;;;;7.13;4.53;;;;;;;7.38;100.00;101492.72;5053825;28;20025;-35
2023/04/07 03:07:34;;;;;;;5.57;4.30;;;;;;;7.38;100.00;101490.88;5053086;28;20112;-35
2023/04/07 03:09:59;;;;;;;7.37;4.57;;;;;;;7.38;100.00;101495.44;5054299;28;20108;-35
2023/04/07 03:12:24;;;;;;;9.40;5.00;;;;;;;7.33;100.00;101489.78;5053650;28;20024;-35
2023/04/07 03:14:50;;;;;;;9.30;4.73;;;;;;;7.39;100.00;101497.09;5053423;28;20044;-35
2023/04/07 03:17:15;;;;;;;7.17;4.83;;;;;;;7.38;100.00;101485.50;5053399;28;20092;-35
2023/04/07 03:19:40;;;;;;;8.93;4.63;;;;;;;7.38;100.00;101490.03;5053360;28;20427;-35
2023/04/07 03:22:06;;;;;;;7.57;4.87;;;;;;;7.37;100.00;101491.03;5052935;28;20021;-35
2023/04/07 03:24:31;;;;;;;8.33;4.70;;;;;;;7.37;100.00;101494.59;5053623;28;20021;-35
2023/04/07 03:26:57;;;;;;;9.03;4.80;;;;;;;7.29;100.00;101483.97;5053548;28;20032;-35
2023/04/07 03:29:22;;;;;;;9.20;4.20;;;;;;;7.29;100.00;101475.88;5053223;28;20025;-35
2023/04/07 03:31:47;;;;;;;8.37;4.03;;;;;;;7.37;100.00;101488.34;5054049;28;20067;-35
2023/04/07 03:34:14;;;;;;;7.70;4.40;;;;;;;7.32;100.00;101480.03;5052972;28;20501;-35
2023/04/07 03:36:40;;;;;;;9.80;4.20;;;;;;;7.35;100.00;101498.50;5053971;28;20029;-35
2023/04/07 03:39:05;;;;;;;6.78;4.07;;;;;;;7.35;100.00;101499.31;5053193;28;20040;-35
2023/04/07 03:41:31;;;;;;;9.23;4.50;;;;;;;7.29;100.00;101483.13;5053077;28;20338;-35
2023/04/07 03:43:56;;;;;;;7.43;4.53;;;;;;;7.35;100.00;101502.00;5053632;28;20260;-35
2023/04/07 03:46:22;;;;;;;8.77;4.60;;;;;;;7.16;100.00;101475.75;5053187;28;20751;-35
2023/04/07 03:48:47;;;;;;;7.80;4.50;;;;;;;7.35;100.00;101502.00;5056394;28;20457;-35
2023/04/07 03:51:14;;;;;;;8.15;4.25;;;;;;;7.35;100.00;101502.00;5057128;28;20021;-35
2023/04/07 03:53:40;;;;;;;9.13;4.45;;;;;;;7.34;100.00;101499.53;5057577;28;20412;-35
2023/04/07 03:56:05;;;;;;;9.85;5.43;;;;;;;7.34;100.00;101508.44;5056309;28;20112;-35
2023/04/07 03:58:31;;;;;;;7.55;4.47;;;;;;;7.34;100.00;101511.13;5056405;28;20024;-35
2023/04/07 04:00:56;;;;;;;9.20;4.87;;;;;;;7.35;100.00;101507.38;5057286;28;20076;-36
2023/04/07 04:03:22;;;;;;;9.55;4.28;;;;;;;7.33;100.00;101508.63;5056582;28;20063;-35
2023/04/07 04:05:47;;;;;;;8.93;4.20;;;;;;;7.36;100.00;101508.22;5057409;28;20021;-35
2023/04/07 04:08:12;;;;;;;8.20;4.30;;;;;;;7.35;100.00;101507.38;5056498;28;20025;-36
2023/04/07 04:10:38;;;;;;;8.87;4.57;;;;;;;7.36;100.00;101502.84;5057328;28;20119;-36
2023/04/07 04:13:05;;;;;;;7.30;4.50;;;;;;;7.34;100.00;101502.22;5055457;28;20021;-35
2023/04/07 04:15:31;;;;;;;8.50;4.32;;;;;;;7.35;100.00;101504.69;5056673;28;20020;-35
2023/04/07 04:17:56;;;;;;;7.60;4.68;;;;;;;7.34;100.00;101504.91;5057134;28;20028;-35
2023/04/07 04:20:22;;;;;;;11.90;4.90;;;;;;;7.31;100.00;101506.09;5055969;28;20033;-35
2023/04/07 04:22:47;;;;;;;9.33;5.57;;;;;;;7.31;100.00;101506.09;5056281;28;20025;-35
2023/04/07 04:25:12;;;;;;;10.83;6.30;;;;;;;7.29;100.00;101508.19;5056548;28;20021;-35
2023/04/07 04:27:38;;;;;;;14.77;6.93;;;;;;;7.25;100.00;101509.56;5056122;28;20263;-35
2023/04/07 04:30:04;;;;;;;14.20;7.50;;;;;;;7.23;100.00;101514.34;5055870;28;20049;-35
2023/04/07 04:32:29;;;;;;;11.00;7.35;;;;;;;7.19;100.00;101510.34;5056601;28;20365;-35
2023/04/07 04:34:54;;;;;;;11.57;7.17;;;;;;;7.15;100.00;101517.13;5055803;28;20029;-35
2023/04/07 04:37:20;;;;;;;10.87;7.97;;;;;;;7.13;100.00;101514.66;5055958;28;20509;-35
2023/04/07 04:39:45;;;;;;;11.73;7.45;;;;;;;7.12;100.00;101523.72;5056002;28;20071;-36
2023/04/07 04:42:11;;;;;;;14.17;8.30;;;;;;;7.10;100.00;101519.56;5056077;28;20025;-35
2023/04/07 04:44:36;;;;;;;13.43;7.80;;;;;;;7.03;100.00;101507.91;5056156;28;20020;-35
2023/04/07 04:47:01;;;;;;;15.83;7.80;;;;;;;7.06;100.00;101529.03;5055805;28;20465;-35
2023/04/07 04:49:27;;;;;;;11.30;7.57;;;;;;;6.94;100.00;101518.78;5055757;28;20049;-35
2023/04/07 04:51:52;;;;;;;11.97;7.57;;;;;;;7.04;100.00;101528.41;5055945;28;20279;-35
2023/04/07 04:54:18;;;;;;;17.55;9.00;;;;;;;7.03;100.00;101532.97;5056227;28;20100;-35
2023/04/07 04:56:44;;;;;;;13.35;8.60;;;;;;;7.02;100.00;101542.03;5055670;28;20017;-35
2023/04/07 04:59:09;;;;;;;12.45;7.63;;;;;;;6.96;100.00;101532.03;5055475;28;20163;-35
2023/04/07 05:01:35;;;;;;;16.77;8.13;;;;;;;7.03;100.00;101542.84;5055855;28;20083;-36
2023/04/07 05:04:00;;;;;;;13.30;7.78;;;;;;;7.04;100.00;101544.56;5055508;28;20025;-35
2023/04/07 05:06:26;;;;;;;14.52;8.77;;;;;;;7.05;100.00;101543.53;5055696;28;20028;-35
2023/04/07 05:08:52;;;;;;;12.98;7.90;;;;;;;7.04;100.00;101550.75;5056182;28;20441;-35
2023/04/07 05:11:17;;;;;;;13.68;8.32;;;;;;;7.06;100.00;101542.50;5055642;28;20465;-35
2023/04/07 05:13:43;;;;;;;9.77;7.97;;;;;;;7.06;100.00;101542.50;5055323;28;20029;-35
2023/04/07 05:16:08;;;;;;;12.73;8.27;;;;;;;7.06;100.00;101546.00;5055307;28;20298;-36
2023/04/07 05:18:33;;;;;;;14.97;7.80;;;;;;;7.08;100.00;101548.53;5055251;28;20020;-36
2023/04/07 05:21:00;;;;;;;15.33;8.30;;;;;;;7.07;100.00;101542.28;5054892;28;20025;-35
2023/04/07 05:23:26;;;;;;;13.68;8.18;;;;;;;7.06;100.00;101555.94;5055072;28;20024;-35
2023/04/07 05:25:51;;;;;;;14.18;7.90;;;;;;;7.06;100.00;101554.06;5054835;28;20025;-35
2023/04/07 05:28:17;;;;;;;14.33;7.70;;;;;;;7.08;100.00;101556.59;5055007;28;20025;-34
2023/04/07 05:30:42;;;;;;;13.75;8.18;;;;;;;7.02;100.00;101544.72;5055312;28;20051;-35
2023/04/07 05:33:07;;;;;;;14.87;8.70;;;;;;;7.10;100.00;101562.59;5054700;28;20028;-35
2023/04/07 05:35:33;;;;;;;13.50;8.00;;;;;;;7.12;100.00;101560.53;5055418;28;20457;-35
2023/04/07 05:37:58;;;;;;;15.43;8.37;;;;;;;7.13;100.00;101564.94;5055146;28;20040;-35
2023/04/07 05:40:24;;;;;;;14.27;7.90;;;;;;;7.11;100.00;101564.25;5054469;28;20083;-35
2023/04/07 05:42:49;;;;;;;12.52;7.68;;;;;;;7.14;100.00;101569.28;5054763;28;20033;-35
2023/04/07 05:45:15;;;;;;;16.38;8.10;;;;;;;7.14;100.00;101563.91;5054998;28;20021;-35
2023/04/07 05:47:40;;;;;;;13.13;7.68;;;;;;;7.15;100.00;101569.06;5055455;28;20035;-35
2023/04/07 05:50:06;;;;;;;17.20;7.72;;;;;;;7.11;100.00;101561.56;5054330;28;20104;-35
2023/04/07 05:52:32;;;;;;;10.57;7.97;;;;;;;7.17;100.00;101568.88;5054578;28;20025;-35
2023/04/07 05:54:57;;;;;;;13.37;7.83;;;;;;;7.19;100.00;101572.22;5055373;28;20037;-35
2023/04/07 05:57:23;;;;;;;16.30;8.57;;;;;;;7.19;100.00;101574.91;5053774;28;20028;-35
2023/04/07 05:59:48;;;;;;;16.43;9.47;;;;;;;7.20;100.00;101568.50;5054286;28;20294;-35
2023/04/07 06:02:14;;;;;;;17.23;7.85;;;;;;;7.16;100.00;101564.53;5054014;28;20465;-35
2023/04/07 06:04:39;;;;;;;12.05;8.07;;;;;;;7.23;100.00;101573.50;5054025;28;20021;-35
2023/04/07 06:07:05;;;;;;;14.07;8.43;;;;;;;7.21;100.00;101570.16;5054258;28;20021;-35
2023/04/07 06:09:31;;;;;;;15.43;9.20;;;;;;;7.17;100.00;101568.88;5054180;28;20031;-35
2023/04/07 06:11:56;;;;;;;15.68;8.43;;;;;;;7.25;100.00;101581.38;5053743;28;20021;-35
2023/04/07 06:14:22;;;;;;;15.50;8.88;;;;;;;7.26;100.00;101583.88;5053908;28;20027;-37
2023/04/07 06:16:48;;;;;;;12.27;8.68;;;;;;;7.27;100.00;101585.56;5053893;28;20466;-35
2023/04/07 06:19:13;;;;;;;17.13;8.73;;;;;;;7.32;100.00;101588.50;5054056;28;20032;-35
2023/04/07 06:21:39;;;;;;;13.48;9.07;;;;;;;7.33;100.00;101590.16;5053043;28;20643;-36
2023/04/07 06:24:05;;;;;;;14.57;9.45;;;;;;;7.34;100.00;101591.84;5053944;28;20028;-36
2023/04/07 06:26:30;;;;;;;;;;;;;;;7.38;100.00;101595.81;5054684;28;20075;-35
2023/04/07 06:28:57;;;;;;;17.63;10.23;;;;;;;7.36;100.00;101594.31;5054723;28;19905;-35
2023/04/07 06:31:22;;;;;;;16.45;9.32;;;;;;;7.37;100.00;101595.97;5054162;28;20035;-35
2023/04/07 06:33:47;;;;;;;16.27;9.43;;;;;;;7.36;100.00;101600.53;5054159;28;20343;-36
2023/04/07 06:36:13;;;;;;;12.43;9.83;;;;;;;7.38;100.00;101592.28;5053942;28;20430;-35
2023/04/07 06:38:38;;;;;;;13.53;9.60;;;;;;;7.38;100.00;101603.06;5053772;28;20065;-35
2023/04/07 06:41:04;;;;;;;15.95;9.85;;;;;;;7.41;100.00;101599.97;5053917;28;20021;-36
2023/04/07 06:43:30;;;;;;;18.20;9.85;;;;;;;7.42;100.00;101610.56;5052491;28;20025;-36
2023/04/07 06:45:55;;;;;;;14.18;9.88;;;;;;;7.45;100.00;101612.00;5054010;28;20458;-36
2023/04/07 06:48:21;;;;;;;14.65;10.27;;;;;;;7.46;100.00;101610.97;5053226;28;20029;-36
2023/04/07 06:50:48;;;;;;;15.10;9.63;;;;;;;7.44;100.00;101596.91;5053662;28;20056;-36
2023/04/07 06:53:14;;;;;;;14.65;9.75;;;;;;;7.49;100.00;101611.44;5053495;28;20059;-36
2023/04/07 06:55:39;;;;;;;17.15;10.18;;;;;;;7.53;100.00;101611.91;5053581;28;20020;-35
2023/04/07 06:58:05;;;;;;;16.75;10.15;;;;;;;7.55;100.00;101617.91;5054038;28;20100;-36
2023/04/07 07:00:30;;;;;;;16.58;9.88;;;;;;;7.58;100.00;101628.31;5053247;28;20049;-35
2023/04/07 07:02:56;;;;;;;15.17;10.07;;;;;;;7.53;100.00;101613.75;5052454;28;20033;-35
2023/04/07 07:05:22;;;;;;;14.15;9.10;;;;;;;7.56;100.00;101619.56;5054379;28;20017;-35
2023/04/07 07:07:48;;;;;;;15.85;10.00;;;;;;;7.57;100.00;101615.03;5053451;28;20043;-35
2023/04/07 07:10:13;;;;;;;13.32;9.52;;;;;;;7.64;100.00;101626.69;5054306;28;20067;-35
2023/04/07 07:12:38;;;;;;;12.97;9.17;;;;;;;7.64;100.00;101635.59;5053180;28;20028;-36
2023/04/07 07:15:05;;;;;;;16.00;9.53;;;;;;;7.66;100.00;101638.09;5053424;28;20063;-35
2023/04/07 07:17:30;;;;;;;14.85;8.95;;;;;;;7.67;100.00;101635.22;5053363;28;20021;-35
2023/04/07 07:19:55;;;;;;;12.87;8.77;;;;;;;7.74;100.00;101635.28;5054034;28;20029;-35
2023/04/07 07:22:21;;;;;;;12.93;8.87;;;;;;;7.78;100.00;101638.44;5054740;28;20061;-34
2023/04/07 07:24:46;;;;;;;12.37;7.63;;;;;;;7.80;100.00;101637.19;5057439;28;20056;-35
2023/04/07 07:27:12;;;;;;;13.53;7.50;;;;;;;7.87;100.00;101640.78;5057286;28;20646;-36
2023/04/07 07:29:37;;;;;;;10.20;6.80;;;;;;;7.90;100.00;101637.69;5057572;28;20267;-36
2023/04/07 07:32:02;;;;;;;8.83;5.93;;;;;;;7.92;100.00;101643.75;5056996;28;20272;-36
2023/04/07 07:34:28;;;;;;;7.53;6.03;;;;;;;7.95;100.00;101647.88;5057838;28;20025;-36
2023/04/07 07:36:54;;;;;;;9.15;5.70;;;;;;;7.89;100.00;101638.72;5057158;28;20041;-36
2023/04/07 07:39:19;;;;;;;6.23;4.33;;;;;;;7.91;100.00;101643.94;5057143;28;20509;-36
2023/04/07 07:41:45;;;;;;;7.22;4.15;;;;;;;7.96;100.00;101653.09;5056592;28;20113;-36
2023/04/07 07:44:11;;;;;;;7.43;4.40;;;;;;;8.02;100.00;101656.88;5056745;28;20025;-36
2023/04/07 07:46:36;;;;;;;7.38;4.15;;;;;;;8.04;100.00;101653.97;5057028;28;20031;-35
2023/04/07 07:49:04;;;;;;;6.50;3.87;;;;;;;8.07;100.00;101658.97;5056882;28;20112;-36
2023/04/07 07:51:29;;;;;;;6.88;3.88;;;;;;;8.05;100.00;101653.78;5057161;28;20577;-34
2023/04/07 07:53:54;;;;;;;7.97;3.95;;;;;;;8.10;100.00;101666.66;5056739;28;20029;-35
2023/04/07 07:56:20;;;;;;;6.23;3.37;;;;;;;8.09;100.00;101662.31;5056761;28;20078;-35
2023/04/07 07:58:46;;;;;;;6.22;3.38;;;;;;;8.10;100.00;101666.66;5056414;28;20028;-35
2023/04/07 08:01:11;;;;;;;5.93;2.80;;;;;;;8.11;100.00;101669.19;5056979;28;20079;-36
2023/04/07 08:03:37;;;;;;;9.20;3.17;;;;;;;8.07;100.00;101662.50;5056581;28;20021;-36
2023/04/07 08:06:02;;;;;;;5.20;3.10;;;;;;;8.18;100.00;101666.53;5056923;28;20024;-36
2023/04/07 08:08:27;;;;;;;3.70;2.60;;;;;;;8.21;100.00;101675.06;5056631;28;20029;-36
2023/04/07 08:10:53;;;;;;;3.67;2.87;;;;;;;8.20;100.00;101669.88;5056866;28;20655;-35
2023/04/07 08:13:18;;;;;;;7.93;3.20;;;;;;;8.26;100.00;101679.88;5056452;28;20465;-36
2023/04/07 08:15:44;;;;;;;5.70;2.97;;;;;;;8.28;100.00;101675.09;5056729;28;20047;-44
2023/04/07 08:18:09;;;;;;;8.27;3.67;;;;;;;8.29;100.00;101684.84;5056397;28;20101;-35
2023/04/07 08:20:35;;;;;;;6.30;3.27;;;;;;;8.30;100.00;101691.94;5057144;28;20433;-36
2023/04/07 08:23:02;;;;;;;6.50;3.05;;;;;;;8.33;100.00;101691.53;5056801;28;20132;-35
2023/04/07 08:25:28;;;;;;;6.00;2.90;;;;;;;8.31;100.00;101696.28;5056838;28;20025;-36
2023/04/07 08:27:54;;;;;;;6.78;3.03;;;;;;;8.32;100.00;101692.56;5056441;28;20028;-35
2023/04/07 08:30:22;;;;;;;5.97;2.50;;;;;;;8.32;100.00;101697.94;5055958;28;20032;-35
2023/04/07 08:32:48;;;;;;;6.63;2.80;;;;;;;8.26;100.00;101693.34;5055328;28;20500;-35
2023/04/07 08:35:13;;;;;;;5.67;2.10;;;;;;;8.36;100.00;101695.69;5056378;28;20021;-36
2023/04/07 08:37:43;;;;;;;4.30;1.90;;;;;;;8.38;100.00;101707.13;5055737;28;20397;-35
2023/04/07 08:40:09;;;;;;;3.17;1.73;;;;;;;8.43;100.00;101705.50;5055915;28;20025;-35
2023/04/07 08:42:42;;;;;;;5.70;2.40;;;;;;;8.51;100.00;101701.84;5055888;28;20118;-35
2023/04/07 08:45:08;;;;;;;3.78;1.98;;;;;;;8.56;100.00;101701.25;5056186;28;20021;-35
2023/04/07 08:47:34;;;;;;;;;;;;;;;8.68;100.00;101703.19;5056184;28;20063;-35
2023/04/07 08:50:03;;;;;;;3.45;1.70;;;;;;;8.67;100.00;101708.81;5055887;28;20337;-36
2023/04/07 08:52:34;;;;;;;4.55;2.03;;;;;;;8.73;100.00;101710.69;5053673;28;20048;-36
2023/04/07 08:55:03;;;;;;;3.83;1.80;;;;;;;8.81;100.00;101712.41;5055719;28;20388;-36
2023/04/07 08:57:31;;;;;;;5.47;2.13;;;;;;;8.81;100.00;101707.03;5055966;28;20407;-36
2023/04/07 09:00:03;;;;;;;3.50;1.98;;;;;;;8.87;100.00;101709.75;5055395;28;20029;-36
2023/04/07 09:02:29;;;;;;;4.68;1.60;;;;;;;8.97;100.00;101718.31;5055527;28;20027;-36
2023/04/07 09:04:55;;;;;;;4.75;1.85;;;;;;;9.02;100.00;101715.84;5055589;28;20039;-36
2023/04/07 09:07:21;;;;;;;6.20;1.70;;;;;;;8.98;100.00;101713.78;5055550;28;20430;-35
2023/04/07 09:09:47;;;;;;;3.80;1.87;;;;;;;8.98;100.00;101720.00;5055449;28;20020;-38
2023/04/07 09:12:12;;;;;;;5.40;1.67;;;;;;;8.98;100.00;101719.19;5055115;28;20111;-35
2023/04/07 09:14:37;;;;;;;3.97;1.60;;;;;;;8.85;100.00;101714.53;5055344;28;20055;-35
2023/04/07 09:17:03;;;;;;;5.03;1.73;;;;;;;8.90;100.00;101727.41;5055070;28;20295;-34
2023/04/07 09:19:29;;;;;;;5.87;1.90;;;;;;;8.80;100.00;101722.38;5055137;28;20025;-35
2023/04/07 09:21:55;;;;;;;4.28;2.10;;;;;;;8.81;100.00;101720.50;5055663;28;20021;-35
2023/04/07 09:24:25;;;;;;;6.05;2.20;;;;;;;8.75;100.00;101716.75;5055527;28;20028;-35
2023/04/07 09:27:07;;;;;;;4.95;2.08;;;;;;;8.84;100.00;101720.97;5055407;28;20017;-35
2023/04/07 09:29:32;;;;;;;6.00;1.95;;;;;;;8.84;100.00;101722.81;5054805;28;20035;-36
2023/04/07 09:31:57;;;;;;;6.82;1.92;;;;;;;8.85;100.00;101729.88;5055389;28;20025;-35
2023/04/07 09:34:28;;;;;;;6.30;2.30;;;;;;;8.87;100.00;101743.97;5055284;28;20067;-35
2023/04/07 09:36:55;;;;;;;6.53;2.17;;;;;;;8.88;100.00;101735.72;5055760;28;20032;-35
2023/04/07 09:39:21;;;;;;;4.15;1.95;;;;;;;8.91;100.00;101723.69;5054840;28;20027;-35
2023/04/07 09:41:46;;;;;;;7.68;2.10;;;;;;;8.98;100.00;101727.28;5054485;28;20025;-35
2023/04/07 09:44:12;;;;;;;9.57;2.90;;;;;;;9.01;100.00;101730.38;5054914;28;20031;-35
2023/04/07 09:46:52;;;;;;;6.15;1.83;;;;;;;9.06;100.00;101734.34;5054364;28;20100;-35
2023/04/07 09:49:19;;;;;;;4.55;1.67;;;;;;;9.00;100.00;101725.19;5055016;28;20103;-35
2023/04/07 09:52:06;;;;;;;6.80;2.15;;;;;;;9.02;100.00;101732.03;5054918;28;20564;-35
2023/04/07 09:54:40;;;;;;;5.38;2.13;;;;;;;9.04;100.00;101742.66;5054344;28;20461;-35
2023/04/07 09:57:10;;;;;;;9.65;2.40;;;;;;;9.00;100.00;101734.13;5055092;28;20045;-35
2023/04/07 09:59:38;;;;;;;6.70;1.90;;;;;;;8.99;100.00;101743.25;5054122;28;20020;-35
2023/04/07 10:02:05;;;;;;;5.80;1.92;;;;;;;8.96;100.00;101743.63;5055313;28;20360;-35
2023/04/07 10:04:30;;;;;;;6.72;1.70;;;;;;;8.92;100.00;101749.63;5054054;28;20547;-35
2023/04/07 10:06:58;;;;;;;5.90;1.80;;;;;;;8.85;100.00;101752.28;5054069;28;20060;-35
2023/04/07 10:09:27;;;;;;;3.72;1.27;;;;;;;8.81;100.00;101751.00;5054176;28;20484;-35
2023/04/07 10:11:54;;;;;;;5.43;1.52;;;;;;;8.81;100.00;101752.88;5054286;28;20039;-35
2023/04/07 10:14:22;;;;;;;4.72;1.33;;;;;;;8.83;100.00;101758.91;5054465;28;20032;-35
2023/04/07 10:16:47;;;;;;;4.93;1.92;;;;;;;8.82;100.00;101746.44;5054474;28;20032;-36
2023/04/07 10:19:13;;;;;;;6.10;2.20;;;;;;;8.87;100.00;101757.47;5054655;28;20434;-36
2023/04/07 10:21:43;;;;;;;;;;;;;;;9.00;100.00;101758.41;5055070;28;20162;-36
2023/04/07 10:24:46;;;;;;;3.03;1.60;;;;;;;9.07;100.00;101763.81;5052827;28;20246;-36
2023/04/07 10:27:15;;;;;;;3.00;1.33;;;;;;;9.12;100.00;101757.81;5054326;28;20047;-36
2023/04/07 10:29:42;;;;;;;4.38;1.45;;;;;;;9.17;100.00;101755.38;5053594;28;20028;-36
2023/04/07 10:32:08;;;;;;;5.22;1.60;;;;;;;9.14;100.00;101747.69;5054257;28;20025;-36
2023/04/07 10:34:49;;;;;;;5.00;1.85;;;;;;;9.31;100.00;101772.47;5054422;28;20460;-36
2023/04/07 10:37:21;;;;;;;6.68;2.17;;;;;;;9.31;100.00;101770.59;5052625;28;20044;-36
2023/04/07 10:40:10;;;;;;;3.38;1.63;;;;;;;9.20;100.00;101763.91;5053916;28;20021;-36
2023/04/07 10:42:39;;;;;;;5.28;1.85;;;;;;;9.18;100.00;101773.25;5054018;28;20028;-36
2023/04/07 10:45:09;;;;;;;8.68;2.10;;;;;;;9.14;100.00;101771.97;5054384;28;20028;-36
2023/04/07 10:47:55;;;;;;;7.10;2.00;;;;;;;9.10;100.00;101768.84;5053412;28;20024;-34
2023/04/07 10:50:23;;;;;;;9.82;2.67;;;;;;;9.15;100.00;101779.03;5053654;28;20037;-35
2023/04/07 10:53:03;;;;;;;6.80;1.98;;;;;;;9.15;100.00;101779.03;5054457;28;20314;-35
2023/04/07 10:55:30;;;;;;;8.55;2.38;;;;;;;9.16;100.00;101778.00;5053634;28;20469;-35
2023/04/07 10:58:23;;;;;;;5.88;2.03;;;;;;;9.20;100.00;101784.66;5053388;28;20052;-36
2023/04/07 11:01:09;;;;;;;4.97;2.30;;;;;;;9.15;100.00;101776.34;5053458;28;20044;-35
2023/04/07 11:03:39;;;;;;;6.90;2.80;;;;;;;9.15;100.00;101779.03;5053613;28;20029;-35
2023/04/07 11:06:10;;;;;;;9.93;2.55;;;;;;;9.16;100.00;101786.09;5053513;28;20115;-35
2023/04/07 11:08:42;;;;;;;6.32;2.05;;;;;;;9.08;100.00;101779.00;5053160;28;20503;-35
2023/04/07 11:11:10;;;;;;;6.50;2.33;;;;;;;9.09;100.00;101780.66;5053456;28;20025;-35
2023/04/07 11:13:39;;;;;;;6.90;2.40;;;;;;;9.06;100.00;101770.25;5053315;28;20025;-35
2023/04/07 11:16:05;;;;;;;7.53;2.85;;;;;;;9.13;100.00;101791.91;5054045;28;20060;-35
2023/04/07 11:18:30;;;;;;;4.35;1.80;;;;;;;9.10;100.00;101776.09;5052057;28;20029;-35
2023/04/07 11:20:57;;;;;;;7.60;2.13;;;;;;;9.21;100.00;101786.31;5053570;28;20029;-36
2023/04/07 11:23:24;;;;;;;8.98;2.60;;;;;;;9.15;100.00;101779.03;5052967;28;20025;-35